createdAt,value
2022-12-09T16:45:37.572Z,3.64
2022-12-09T16:48:05.142Z,3.59
2022-12-09T16:50:36.449Z,3.52
2022-12-09T16:53:05.595Z,3.46
2022-12-09T16:55:32.214Z,3.61
2022-12-09T16:58:01.701Z,3.60
2022-12-09T17:00:28.134Z,3.56
2022-12-09T17:03:00.818Z,3.57
2022-12-09T17:05:27.343Z,3.50
2022-12-09T17:07:54.009Z,3.41
2022-12-09T17:10:21.017Z,3.42
2022-12-09T17:12:47.430Z,3.42
2022-12-09T17:15:15.197Z,3.42
2022-12-09T17:17:48.132Z,3.30
2022-12-09T17:20:15.088Z,3.27
2022-12-09T17:22:42.342Z,3.22
2022-12-09T17:25:10.421Z,3.24
2022-12-09T17:27:37.271Z,3.32
2022-12-09T17:30:08.196Z,3.27
2022-12-09T17:32:35.731Z,3.23
2022-12-09T17:35:03.526Z,3.30
2022-12-09T17:37:31.735Z,3.32
2022-12-09T17:40:03.417Z,3.35
2022-12-09T17:42:31.580Z,3.31
2022-12-09T17:44:58.170Z,3.21
2022-12-09T17:47:24.842Z,3.21
2022-12-09T17:49:51.407Z,3.05
2022-12-09T17:52:17.991Z,3.13
2022-12-09T17:54:44.643Z,3.04
2022-12-09T17:57:11.241Z,2.95
2022-12-09T17:59:38.124Z,2.91
2022-12-09T18:02:04.991Z,2.99
2022-12-09T18:04:32.004Z,3.00
2022-12-09T18:06:58.509Z,3.03
2022-12-09T18:09:25.036Z,3.04
2022-12-09T18:11:51.945Z,3.09
2022-12-09T18:14:18.722Z,3.15
2022-12-09T18:16:46.596Z,3.12
2022-12-09T18:19:16.385Z,3.07
2022-12-09T18:21:43.274Z,3.06
2022-12-09T18:24:10.041Z,3.04
2022-12-09T18:26:41.567Z,2.99
2022-12-09T18:29:09.081Z,2.97
2022-12-09T18:31:35.898Z,3.01
2022-12-09T18:34:02.471Z,2.95
2022-12-09T18:36:29.351Z,3.12
2022-12-09T18:38:57.917Z,3.13
2022-12-09T18:41:31.475Z,3.17
2022-12-09T18:44:02.366Z,3.26
2022-12-09T18:46:34.277Z,3.27
2022-12-09T19:02:24.798Z,3.13
2022-12-09T19:04:51.410Z,3.14
2022-12-09T19:07:17.852Z,3.10
2022-12-09T19:09:49.555Z,3.16
2022-12-09T19:12:45.957Z,3.14
2022-12-09T19:15:05.443Z,3.00
2022-12-09T19:17:32.593Z,2.91
2022-12-09T19:19:59.226Z,2.92
2022-12-09T19:22:25.780Z,3.02
2022-12-09T19:25:18.307Z,2.94
2022-12-09T19:27:47.056Z,3.02
2022-12-09T19:30:14.103Z,3.01
2022-12-09T19:32:56.731Z,2.77
2022-12-09T19:35:23.993Z,2.93
2022-12-09T19:37:54.297Z,2.82
2022-12-09T19:40:23.525Z,2.73
2022-12-09T19:43:36.824Z,2.66
2022-12-09T19:46:07.518Z,2.62
2022-12-09T19:48:35.856Z,2.53
2022-12-09T19:51:03.631Z,2.55
2022-12-09T19:53:30.946Z,2.54
2022-12-09T19:56:00.223Z,2.59
2022-12-09T19:58:28.734Z,2.62
2022-12-09T20:00:55.639Z,2.64
2022-12-09T20:03:25.937Z,2.77
2022-12-09T20:06:02.941Z,2.81
2022-12-09T20:08:33.356Z,2.84
2022-12-09T20:11:01.471Z,2.89
2022-12-09T20:13:43.724Z,2.93
2022-12-09T20:16:19.894Z,2.93
2022-12-09T20:18:54.810Z,2.97
2022-12-09T20:21:25.530Z,3.00
2022-12-09T20:23:52.850Z,2.98
2022-12-09T20:26:27.638Z,3.04
2022-12-09T20:28:55.317Z,3.12
2022-12-09T20:31:26.385Z,2.98
2022-12-09T20:33:54.324Z,3.01
2022-12-09T20:36:21.753Z,2.99
2022-12-09T20:38:52.447Z,3.07
2022-12-09T20:41:19.723Z,3.08
2022-12-09T20:43:47.015Z,3.01
2022-12-09T20:46:17.805Z,2.91
2022-12-09T20:48:44.681Z,2.97
2022-12-09T20:51:24.178Z,2.96
2022-12-09T20:53:51.221Z,3.02
2022-12-09T20:56:20.664Z,3.11
2022-12-09T20:58:47.723Z,3.14
2022-12-09T21:01:16.796Z,3.18
2022-12-09T21:03:43.542Z,3.17
2022-12-09T21:06:10.921Z,3.14
2022-12-09T21:08:37.687Z,3.06
2022-12-09T21:11:09.096Z,2.96
2022-12-09T21:13:36.852Z,2.71
2022-12-09T21:16:04.818Z,2.90
2022-12-09T21:18:31.632Z,2.89
2022-12-09T21:20:58.089Z,2.83
2022-12-09T21:23:33.635Z,2.76
2022-12-09T21:26:05.529Z,2.79
2022-12-09T21:28:33.503Z,2.74
2022-12-09T21:31:05.866Z,2.75
2022-12-09T21:33:32.649Z,2.76
2022-12-09T21:35:59.202Z,2.70
2022-12-09T21:38:28.144Z,2.62
2022-12-09T21:40:54.601Z,2.42
2022-12-09T21:43:21.241Z,2.34
2022-12-09T21:45:47.933Z,2.32
2022-12-09T21:48:14.446Z,2.39
2022-12-09T21:50:41.940Z,2.53
2022-12-09T21:53:08.418Z,2.53
2022-12-09T21:55:34.923Z,2.53
2022-12-09T21:58:02.433Z,2.55
2022-12-09T22:00:29.662Z,2.53
2022-12-09T22:02:56.231Z,2.51
2022-12-09T22:05:24.868Z,2.45
2022-12-09T22:07:51.421Z,2.29
2022-12-09T22:10:17.989Z,2.20
2022-12-09T22:12:44.483Z,2.19
2022-12-09T22:15:11.028Z,2.22
2022-12-09T22:17:39.786Z,2.23
2022-12-09T22:20:48.936Z,2.02
2022-12-09T22:22:54.095Z,1.93
2022-12-09T22:25:20.707Z,1.89
2022-12-09T22:27:47.170Z,1.85
2022-12-09T22:30:13.722Z,1.91
2022-12-09T22:32:42.124Z,2.02
2022-12-09T22:35:11.160Z,2.04
2022-12-09T22:37:44.170Z,2.02
2022-12-09T22:40:11.319Z,2.02
2022-12-09T22:42:38.873Z,1.92
2022-12-09T22:45:05.947Z,1.77
2022-12-09T22:47:32.584Z,1.79
2022-12-09T22:49:59.356Z,1.83
2022-12-09T22:52:25.745Z,1.88
2022-12-09T22:54:52.300Z,1.83
2022-12-09T22:57:18.715Z,1.79
2022-12-09T22:59:45.127Z,1.84
2022-12-09T23:02:11.645Z,1.82
2022-12-09T23:04:38.324Z,1.85
2022-12-09T23:07:04.723Z,1.86
2022-12-09T23:09:31.364Z,1.88
2022-12-09T23:11:57.729Z,1.83
2022-12-09T23:14:24.146Z,1.85
2022-12-09T23:16:50.616Z,1.86
2022-12-09T23:19:17.011Z,1.85
2022-12-09T23:21:43.502Z,1.79
2022-12-09T23:24:11.436Z,1.70
2022-12-09T23:26:39.306Z,1.66
2022-12-09T23:29:07.074Z,1.52
2022-12-09T23:31:34.756Z,1.50
2022-12-09T23:34:01.662Z,1.54
2022-12-09T23:36:32.569Z,1.47
2022-12-09T23:38:59.627Z,1.46
2022-12-09T23:41:26.101Z,1.57
2022-12-09T23:43:52.877Z,1.57
2022-12-09T23:46:20.515Z,1.59
2022-12-09T23:48:48.103Z,1.62
2022-12-09T23:51:17.660Z,1.32
2022-12-09T23:53:44.815Z,1.20
2022-12-09T23:56:12.422Z,1.19
2022-12-09T23:58:39.183Z,1.31
